sensor_id;sensor_type;location;lat;lon;timestamp;temperature;humidity
774;DHT22;370;48.810;9.150;2023-08-21T00:00:46;24.50;16.20
774;DHT22;370;48.810;9.150;2023-08-21T00:03:13;24.50;16.20
774;DHT22;370;48.810;9.150;2023-08-21T00:05:40;24.50;17.20
774;DHT22;370;48.810;9.150;2023-08-21T00:08:07;24.40;18.10
774;DHT22;370;48.810;9.150;2023-08-21T00:10:37;24.40;17.70
774;DHT22;370;48.810;9.150;2023-08-21T00:13:04;24.40;17.60
774;DHT22;370;48.810;9.150;2023-08-21T00:15:32;24.30;18.60
774;DHT22;370;48.810;9.150;2023-08-21T00:17:59;24.30;19.40
774;DHT22;370;48.810;9.150;2023-08-21T00:20:26;24.30;18.70
774;DHT22;370;48.810;9.150;2023-08-21T00:22:53;24.30;17.30
774;DHT22;370;48.810;9.150;2023-08-21T00:25:21;24.30;19.20
774;DHT22;370;48.810;9.150;2023-08-21T00:27:48;24.40;19.00
774;DHT22;370;48.810;9.150;2023-08-21T00:30:14;24.50;14.90
774;DHT22;370;48.810;9.150;2023-08-21T00:32:43;24.50;13.70
774;DHT22;370;48.810;9.150;2023-08-21T00:35:09;24.60;13.70
774;DHT22;370;48.810;9.150;2023-08-21T00:37:36;24.50;14.10
774;DHT22;370;48.810;9.150;2023-08-21T00:40:03;24.50;14.10
774;DHT22;370;48.810;9.150;2023-08-21T00:42:30;24.60;12.90
774;DHT22;370;48.810;9.150;2023-08-21T00:44:57;24.60;13.10
774;DHT22;370;48.810;9.150;2023-08-21T00:47:24;24.50;13.30
774;DHT22;370;48.810;9.150;2023-08-21T00:49:52;24.60;13.00
774;DHT22;370;48.810;9.150;2023-08-21T00:52:19;24.50;14.90
774;DHT22;370;48.810;9.150;2023-08-21T00:54:46;24.30;16.80
774;DHT22;370;48.810;9.150;2023-08-21T00:57:14;24.20;18.00
774;DHT22;370;48.810;9.150;2023-08-21T00:59:40;24.20;18.40
774;DHT22;370;48.810;9.150;2023-08-21T01:02:07;24.20;17.50
774;DHT22;370;48.810;9.150;2023-08-21T01:04:34;24.00;18.90
774;DHT22;370;48.810;9.150;2023-08-21T01:07:02;23.90;18.90
774;DHT22;370;48.810;9.150;2023-08-21T01:09:41;23.80;21.20
774;DHT22;370;48.810;9.150;2023-08-21T01:12:16;23.80;20.80
774;DHT22;370;48.810;9.150;2023-08-21T01:14:51;23.80;20.10
774;DHT22;370;48.810;9.150;2023-08-21T01:17:21;23.70;23.10
774;DHT22;370;48.810;9.150;2023-08-21T01:19:50;23.60;23.40
774;DHT22;370;48.810;9.150;2023-08-21T01:22:19;23.50;24.40
774;DHT22;370;48.810;9.150;2023-08-21T01:24:47;23.50;24.50
774;DHT22;370;48.810;9.150;2023-08-21T01:27:14;23.40;26.10
774;DHT22;370;48.810;9.150;2023-08-21T01:29:41;23.30;26.70
774;DHT22;370;48.810;9.150;2023-08-21T01:32:13;23.30;26.60
774;DHT22;370;48.810;9.150;2023-08-21T01:34:42;23.20;28.50
774;DHT22;370;48.810;9.150;2023-08-21T01:37:10;23.20;26.80
774;DHT22;370;48.810;9.150;2023-08-21T01:39:37;23.30;25.50
774;DHT22;370;48.810;9.150;2023-08-21T01:42:05;23.30;24.40
774;DHT22;370;48.810;9.150;2023-08-21T01:44:32;23.20;27.10
774;DHT22;370;48.810;9.150;2023-08-21T01:46:59;23.20;28.10
774;DHT22;370;48.810;9.150;2023-08-21T01:49:25;23.10;29.60
774;DHT22;370;48.810;9.150;2023-08-21T01:51:52;23.00;31.10
774;DHT22;370;48.810;9.150;2023-08-21T01:54:19;22.90;31.80
774;DHT22;370;48.810;9.150;2023-08-21T01:56:45;22.80;34.10
774;DHT22;370;48.810;9.150;2023-08-21T01:59:15;22.80;33.30
774;DHT22;370;48.810;9.150;2023-08-21T02:01:42;22.70;34.90
774;DHT22;370;48.810;9.150;2023-08-21T02:04:09;22.70;35.20
774;DHT22;370;48.810;9.150;2023-08-21T02:06:36;22.60;36.30
774;DHT22;370;48.810;9.150;2023-08-21T02:09:02;22.60;36.00
774;DHT22;370;48.810;9.150;2023-08-21T02:11:29;22.50;37.30
774;DHT22;370;48.810;9.150;2023-08-21T02:13:56;22.50;39.00
774;DHT22;370;48.810;9.150;2023-08-21T02:16:24;22.40;41.40
774;DHT22;370;48.810;9.150;2023-08-21T02:18:50;22.40;39.70
774;DHT22;370;48.810;9.150;2023-08-21T02:21:17;22.40;38.50
774;DHT22;370;48.810;9.150;2023-08-21T02:23:44;22.40;38.20
774;DHT22;370;48.810;9.150;2023-08-21T02:26:10;22.40;38.30
774;DHT22;370;48.810;9.150;2023-08-21T02:28:37;22.50;36.30
774;DHT22;370;48.810;9.150;2023-08-21T02:31:04;22.50;35.50
774;DHT22;370;48.810;9.150;2023-08-21T02:33:32;22.50;34.00
774;DHT22;370;48.810;9.150;2023-08-21T02:35:59;22.50;33.10
774;DHT22;370;48.810;9.150;2023-08-21T02:38:26;22.50;33.20
774;DHT22;370;48.810;9.150;2023-08-21T02:40:53;22.50;35.10
774;DHT22;370;48.810;9.150;2023-08-21T02:43:19;22.40;37.80
774;DHT22;370;48.810;9.150;2023-08-21T02:45:46;22.30;39.40
774;DHT22;370;48.810;9.150;2023-08-21T02:48:13;22.20;40.10
774;DHT22;370;48.810;9.150;2023-08-21T02:50:41;22.20;39.20
774;DHT22;370;48.810;9.150;2023-08-21T02:53:07;22.10;41.20
774;DHT22;370;48.810;9.150;2023-08-21T02:55:34;22.10;39.00
774;DHT22;370;48.810;9.150;2023-08-21T02:58:01;22.00;41.10
774;DHT22;370;48.810;9.150;2023-08-21T03:00:28;21.90;41.00
774;DHT22;370;48.810;9.150;2023-08-21T03:02:55;21.90;41.00
774;DHT22;370;48.810;9.150;2023-08-21T03:05:22;22.00;37.80
774;DHT22;370;48.810;9.150;2023-08-21T03:07:50;22.10;36.80
774;DHT22;370;48.810;9.150;2023-08-21T03:10:17;22.00;38.80
774;DHT22;370;48.810;9.150;2023-08-21T03:12:44;22.00;39.00
774;DHT22;370;48.810;9.150;2023-08-21T03:15:10;22.00;37.20
774;DHT22;370;48.810;9.150;2023-08-21T03:17:37;22.10;35.60
774;DHT22;370;48.810;9.150;2023-08-21T03:20:04;22.20;33.30
774;DHT22;370;48.810;9.150;2023-08-21T03:22:31;22.20;33.60
774;DHT22;370;48.810;9.150;2023-08-21T03:24:59;22.20;32.40
774;DHT22;370;48.810;9.150;2023-08-21T03:27:26;22.30;32.80
774;DHT22;370;48.810;9.150;2023-08-21T03:29:53;22.20;32.80
774;DHT22;370;48.810;9.150;2023-08-21T03:32:19;22.00;35.60
774;DHT22;370;48.810;9.150;2023-08-21T03:34:46;21.90;36.70
774;DHT22;370;48.810;9.150;2023-08-21T03:37:13;21.90;38.70
774;DHT22;370;48.810;9.150;2023-08-21T03:39:39;21.90;39.40
774;DHT22;370;48.810;9.150;2023-08-21T03:42:07;21.70;40.80
774;DHT22;370;48.810;9.150;2023-08-21T03:44:34;21.60;43.70
774;DHT22;370;48.810;9.150;2023-08-21T03:47:01;21.60;44.30
774;DHT22;370;48.810;9.150;2023-08-21T03:49:28;21.60;44.70
774;DHT22;370;48.810;9.150;2023-08-21T03:51:54;21.60;44.50
774;DHT22;370;48.810;9.150;2023-08-21T03:54:21;21.50;46.20
774;DHT22;370;48.810;9.150;2023-08-21T03:56:48;21.50;46.20
774;DHT22;370;48.810;9.150;2023-08-21T03:59:16;21.60;45.00
774;DHT22;370;48.810;9.150;2023-08-21T04:01:42;21.60;45.00
774;DHT22;370;48.810;9.150;2023-08-21T04:04:09;21.50;46.00
774;DHT22;370;48.810;9.150;2023-08-21T04:06:36;21.50;45.90
774;DHT22;370;48.810;9.150;2023-08-21T04:09:03;21.50;46.50
774;DHT22;370;48.810;9.150;2023-08-21T04:11:31;21.50;46.80
774;DHT22;370;48.810;9.150;2023-08-21T04:13:58;21.50;47.20
774;DHT22;370;48.810;9.150;2023-08-21T04:16:27;21.50;46.80
774;DHT22;370;48.810;9.150;2023-08-21T04:18:56;21.50;47.00
774;DHT22;370;48.810;9.150;2023-08-21T04:21:22;21.60;45.10
774;DHT22;370;48.810;9.150;2023-08-21T04:23:49;21.80;41.30
774;DHT22;370;48.810;9.150;2023-08-21T04:26:16;21.80;40.90
774;DHT22;370;48.810;9.150;2023-08-21T04:28:42;21.80;40.90
774;DHT22;370;48.810;9.150;2023-08-21T04:31:09;22.00;36.90
774;DHT22;370;48.810;9.150;2023-08-21T04:33:37;22.10;34.60
774;DHT22;370;48.810;9.150;2023-08-21T04:36:04;22.10;34.30
774;DHT22;370;48.810;9.150;2023-08-21T04:38:31;21.90;36.90
774;DHT22;370;48.810;9.150;2023-08-21T04:41:05;21.90;38.80
774;DHT22;370;48.810;9.150;2023-08-21T04:43:32;21.90;38.80
774;DHT22;370;48.810;9.150;2023-08-21T04:45:59;21.80;39.40
774;DHT22;370;48.810;9.150;2023-08-21T04:48:25;21.80;39.60
774;DHT22;370;48.810;9.150;2023-08-21T04:50:53;21.70;41.60
774;DHT22;370;48.810;9.150;2023-08-21T04:53:20;21.70;42.20
774;DHT22;370;48.810;9.150;2023-08-21T04:55:47;21.80;41.10
774;DHT22;370;48.810;9.150;2023-08-21T04:58:14;21.80;40.90
774;DHT22;370;48.810;9.150;2023-08-21T05:00:44;21.80;40.90
774;DHT22;370;48.810;9.150;2023-08-21T05:03:11;22.00;38.70
774;DHT22;370;48.810;9.150;2023-08-21T05:05:38;22.00;38.70
774;DHT22;370;48.810;9.150;2023-08-21T05:08:06;22.00;39.80
774;DHT22;370;48.810;9.150;2023-08-21T05:10:32;22.10;39.30
774;DHT22;370;48.810;9.150;2023-08-21T05:12:59;22.20;38.30
774;DHT22;370;48.810;9.150;2023-08-21T05:15:26;22.20;36.90
774;DHT22;370;48.810;9.150;2023-08-21T05:17:53;22.20;38.10
774;DHT22;370;48.810;9.150;2023-08-21T05:20:19;22.30;37.20
774;DHT22;370;48.810;9.150;2023-08-21T05:22:46;22.40;34.80
774;DHT22;370;48.810;9.150;2023-08-21T05:25:14;22.50;33.90
774;DHT22;370;48.810;9.150;2023-08-21T05:27:41;22.70;31.10
774;DHT22;370;48.810;9.150;2023-08-21T05:30:09;22.90;29.10
774;DHT22;370;48.810;9.150;2023-08-21T05:32:37;23.00;27.70
774;DHT22;370;48.810;9.150;2023-08-21T05:35:05;23.10;26.50
774;DHT22;370;48.810;9.150;2023-08-21T05:37:33;23.30;24.10
774;DHT22;370;48.810;9.150;2023-08-21T05:40:00;23.50;22.00
774;DHT22;370;48.810;9.150;2023-08-21T05:42:30;23.60;20.70
774;DHT22;370;48.810;9.150;2023-08-21T05:44:57;23.70;20.30
774;DHT22;370;48.810;9.150;2023-08-21T05:47:23;23.80;19.60
774;DHT22;370;48.810;9.150;2023-08-21T05:49:52;24.00;20.40
774;DHT22;370;48.810;9.150;2023-08-21T05:52:19;24.20;20.00
774;DHT22;370;48.810;9.150;2023-08-21T05:54:46;24.30;19.20
774;DHT22;370;48.810;9.150;2023-08-21T05:57:12;24.50;17.90
774;DHT22;370;48.810;9.150;2023-08-21T05:59:45;24.80;16.20
774;DHT22;370;48.810;9.150;2023-08-21T06:02:12;25.00;15.00
774;DHT22;370;48.810;9.150;2023-08-21T06:04:40;25.00;12.40
774;DHT22;370;48.810;9.150;2023-08-21T06:07:07;25.10;12.00
774;DHT22;370;48.810;9.150;2023-08-21T06:09:34;25.20;9.70
774;DHT22;370;48.810;9.150;2023-08-21T06:12:02;25.30;8.40
774;DHT22;370;48.810;9.150;2023-08-21T06:14:29;25.50;8.50
774;DHT22;370;48.810;9.150;2023-08-21T06:16:58;25.50;7.80
774;DHT22;370;48.810;9.150;2023-08-21T06:19:25;25.70;5.10
774;DHT22;370;48.810;9.150;2023-08-21T06:21:52;25.80;4.30
774;DHT22;370;48.810;9.150;2023-08-21T06:24:18;26.10;4.10
774;DHT22;370;48.810;9.150;2023-08-21T06:26:45;26.40;2.80
774;DHT22;370;48.810;9.150;2023-08-21T06:29:12;26.70;1.00
774;DHT22;370;48.810;9.150;2023-08-21T06:31:38;27.00;1.00
774;DHT22;370;48.810;9.150;2023-08-21T06:34:06;27.20;1.00
774;DHT22;370;48.810;9.150;2023-08-21T06:36:33;27.60;1.00
774;DHT22;370;48.810;9.150;2023-08-21T06:39:00;27.80;1.00
774;DHT22;370;48.810;9.150;2023-08-21T06:41:26;28.30;1.00
774;DHT22;370;48.810;9.150;2023-08-21T06:43:53;28.80;1.00
774;DHT22;370;48.810;9.150;2023-08-21T06:46:20;29.10;1.00
774;DHT22;370;48.810;9.150;2023-08-21T06:48:47;29.60;1.00
774;DHT22;370;48.810;9.150;2023-08-21T06:51:16;29.90;1.00
774;DHT22;370;48.810;9.150;2023-08-21T06:53:43;30.40;1.00
774;DHT22;370;48.810;9.150;2023-08-21T06:56:10;30.90;1.00
774;DHT22;370;48.810;9.150;2023-08-21T06:58:37;31.40;1.00
774;DHT22;370;48.810;9.150;2023-08-21T07:01:03;31.70;1.00
774;DHT22;370;48.810;9.150;2023-08-21T07:03:30;32.10;1.00
774;DHT22;370;48.810;9.150;2023-08-21T07:05:57;32.50;1.00
774;DHT22;370;48.810;9.150;2023-08-21T07:08:26;32.90;1.00
774;DHT22;370;48.810;9.150;2023-08-21T07:10:53;33.20;1.00
774;DHT22;370;48.810;9.150;2023-08-21T07:13:20;33.40;1.00
774;DHT22;370;48.810;9.150;2023-08-21T07:15:47;33.90;1.00
774;DHT22;370;48.810;9.150;2023-08-21T07:18:14;34.60;1.00
774;DHT22;370;48.810;9.150;2023-08-21T07:20:41;35.30;1.00
774;DHT22;370;48.810;9.150;2023-08-21T07:23:08;36.00;1.00
774;DHT22;370;48.810;9.150;2023-08-21T07:25:36;36.30;1.00
774;DHT22;370;48.810;9.150;2023-08-21T07:28:04;36.90;1.00
774;DHT22;370;48.810;9.150;2023-08-21T07:30:30;37.40;1.00
774;DHT22;370;48.810;9.150;2023-08-21T07:32:57;36.60;1.00
774;DHT22;370;48.810;9.150;2023-08-21T07:35:24;36.90;1.00
774;DHT22;370;48.810;9.150;2023-08-21T07:37:50;37.40;1.00
774;DHT22;370;48.810;9.150;2023-08-21T07:40:17;37.40;1.00
774;DHT22;370;48.810;9.150;2023-08-21T07:42:45;38.40;1.00
774;DHT22;370;48.810;9.150;2023-08-21T07:45:12;38.80;1.00
774;DHT22;370;48.810;9.150;2023-08-21T07:47:39;39.00;1.00
774;DHT22;370;48.810;9.150;2023-08-21T07:50:06;39.20;1.00
774;DHT22;370;48.810;9.150;2023-08-21T07:52:34;39.20;1.00
774;DHT22;370;48.810;9.150;2023-08-21T07:55:01;38.70;1.00
774;DHT22;370;48.810;9.150;2023-08-21T07:57:28;38.90;1.00
774;DHT22;370;48.810;9.150;2023-08-21T07:59:57;38.80;1.00
774;DHT22;370;48.810;9.150;2023-08-21T08:05:45;38.00;1.00
774;DHT22;370;48.810;9.150;2023-08-21T08:08:12;38.50;1.00
774;DHT22;370;48.810;9.150;2023-08-21T08:10:40;38.90;1.00
774;DHT22;370;48.810;9.150;2023-08-21T08:13:07;39.10;1.00
774;DHT22;370;48.810;9.150;2023-08-21T08:15:35;39.80;1.00
774;DHT22;370;48.810;9.150;2023-08-21T08:18:03;40.10;1.00
774;DHT22;370;48.810;9.150;2023-08-21T08:20:31;40.00;1.00
774;DHT22;370;48.810;9.150;2023-08-21T08:22:58;40.30;1.00
774;DHT22;370;48.810;9.150;2023-08-21T08:25:24;40.70;1.00
774;DHT22;370;48.810;9.150;2023-08-21T08:27:52;41.30;1.00
774;DHT22;370;48.810;9.150;2023-08-21T08:30:18;41.80;1.00
774;DHT22;370;48.810;9.150;2023-08-21T08:32:46;41.30;1.00
774;DHT22;370;48.810;9.150;2023-08-21T08:35:13;41.80;1.00
774;DHT22;370;48.810;9.150;2023-08-21T08:37:40;42.40;1.00
774;DHT22;370;48.810;9.150;2023-08-21T08:40:08;42.40;1.00
774;DHT22;370;48.810;9.150;2023-08-21T08:42:36;42.40;1.00
774;DHT22;370;48.810;9.150;2023-08-21T08:45:03;42.50;1.00
774;DHT22;370;48.810;9.150;2023-08-21T08:47:31;42.80;1.00
774;DHT22;370;48.810;9.150;2023-08-21T08:50:01;43.00;1.00
774;DHT22;370;48.810;9.150;2023-08-21T08:52:30;43.30;1.00
774;DHT22;370;48.810;9.150;2023-08-21T08:54:58;43.30;1.00
774;DHT22;370;48.810;9.150;2023-08-21T08:57:24;43.30;1.00
774;DHT22;370;48.810;9.150;2023-08-21T08:59:51;43.00;1.00
774;DHT22;370;48.810;9.150;2023-08-21T09:02:18;43.20;1.00
774;DHT22;370;48.810;9.150;2023-08-21T09:04:45;43.40;1.00
774;DHT22;370;48.810;9.150;2023-08-21T09:07:13;44.40;1.00
774;DHT22;370;48.810;9.150;2023-08-21T09:09:46;45.10;1.00
774;DHT22;370;48.810;9.150;2023-08-21T09:12:15;44.80;1.00
774;DHT22;370;48.810;9.150;2023-08-21T09:14:43;44.10;1.00
774;DHT22;370;48.810;9.150;2023-08-21T09:17:10;44.70;1.00
774;DHT22;370;48.810;9.150;2023-08-21T09:19:37;44.80;1.00
774;DHT22;370;48.810;9.150;2023-08-21T09:22:09;45.30;1.00
774;DHT22;370;48.810;9.150;2023-08-21T09:24:38;45.60;1.00
774;DHT22;370;48.810;9.150;2023-08-21T09:27:13;45.80;1.00
774;DHT22;370;48.810;9.150;2023-08-21T09:29:40;45.80;1.00
774;DHT22;370;48.810;9.150;2023-08-21T09:32:07;45.50;1.00
774;DHT22;370;48.810;9.150;2023-08-21T09:34:34;45.20;1.00
774;DHT22;370;48.810;9.150;2023-08-21T09:37:05;45.40;1.00
774;DHT22;370;48.810;9.150;2023-08-21T09:43:10;45.60;1.00
774;DHT22;370;48.810;9.150;2023-08-21T09:45:37;46.50;1.00
774;DHT22;370;48.810;9.150;2023-08-21T09:48:05;45.40;1.00
774;DHT22;370;48.810;9.150;2023-08-21T09:50:33;45.80;1.00
774;DHT22;370;48.810;9.150;2023-08-21T09:53:02;46.60;1.00
774;DHT22;370;48.810;9.150;2023-08-21T09:55:32;47.60;1.00
774;DHT22;370;48.810;9.150;2023-08-21T09:58:00;47.20;1.00
774;DHT22;370;48.810;9.150;2023-08-21T10:00:33;47.60;1.00
774;DHT22;370;48.810;9.150;2023-08-21T10:03:02;45.10;1.00
774;DHT22;370;48.810;9.150;2023-08-21T10:05:31;43.10;1.00
774;DHT22;370;48.810;9.150;2023-08-21T10:08:00;45.10;1.00
774;DHT22;370;48.810;9.150;2023-08-21T10:10:29;46.80;1.00
774;DHT22;370;48.810;9.150;2023-08-21T10:12:57;47.90;1.00
774;DHT22;370;48.810;9.150;2023-08-21T10:15:24;47.30;1.00
774;DHT22;370;48.810;9.150;2023-08-21T10:17:52;46.50;1.00
774;DHT22;370;48.810;9.150;2023-08-21T10:20:21;46.00;1.00
774;DHT22;370;48.810;9.150;2023-08-21T10:22:49;46.90;1.00
774;DHT22;370;48.810;9.150;2023-08-21T10:25:18;47.40;1.00
774;DHT22;370;48.810;9.150;2023-08-21T10:27:49;47.50;1.00
774;DHT22;370;48.810;9.150;2023-08-21T10:30:21;47.90;1.00
774;DHT22;370;48.810;9.150;2023-08-21T10:32:48;49.30;1.00
774;DHT22;370;48.810;9.150;2023-08-21T10:35:20;49.90;1.00
774;DHT22;370;48.810;9.150;2023-08-21T10:38:10;49.60;1.00
774;DHT22;370;48.810;9.150;2023-08-21T10:40:37;50.80;1.00
774;DHT22;370;48.810;9.150;2023-08-21T10:43:04;52.60;1.00
774;DHT22;370;48.810;9.150;2023-08-21T10:45:31;53.60;1.00
774;DHT22;370;48.810;9.150;2023-08-21T10:47:58;55.10;1.00
774;DHT22;370;48.810;9.150;2023-08-21T10:50:26;56.70;1.00
774;DHT22;370;48.810;9.150;2023-08-21T10:52:53;56.90;1.00
774;DHT22;370;48.810;9.150;2023-08-21T10:55:20;58.20;1.00
774;DHT22;370;48.810;9.150;2023-08-21T10:57:48;59.20;1.00
774;DHT22;370;48.810;9.150;2023-08-21T11:00:16;59.50;1.00
774;DHT22;370;48.810;9.150;2023-08-21T11:02:44;57.50;1.00
774;DHT22;370;48.810;9.150;2023-08-21T11:05:12;56.80;1.00
774;DHT22;370;48.810;9.150;2023-08-21T11:07:41;57.80;1.00
774;DHT22;370;48.810;9.150;2023-08-21T11:10:11;58.90;1.00
774;DHT22;370;48.810;9.150;2023-08-21T11:12:48;58.90;1.00
774;DHT22;370;48.810;9.150;2023-08-21T11:15:15;58.80;1.00
774;DHT22;370;48.810;9.150;2023-08-21T11:17:50;58.90;1.00
774;DHT22;370;48.810;9.150;2023-08-21T11:20:17;59.60;1.00
774;DHT22;370;48.810;9.150;2023-08-21T11:22:45;60.50;1.00
774;DHT22;370;48.810;9.150;2023-08-21T11:25:14;61.20;1.00
774;DHT22;370;48.810;9.150;2023-08-21T11:27:41;60.70;1.00
774;DHT22;370;48.810;9.150;2023-08-21T11:30:11;60.00;1.00
774;DHT22;370;48.810;9.150;2023-08-21T11:32:38;59.90;1.00
774;DHT22;370;48.810;9.150;2023-08-21T11:35:05;58.80;1.00
774;DHT22;370;48.810;9.150;2023-08-21T11:37:32;58.60;1.00
774;DHT22;370;48.810;9.150;2023-08-21T11:40:08;58.50;1.00
774;DHT22;370;48.810;9.150;2023-08-21T11:42:35;58.90;1.00
774;DHT22;370;48.810;9.150;2023-08-21T11:45:02;59.50;1.00
774;DHT22;370;48.810;9.150;2023-08-21T11:47:34;59.00;1.00
774;DHT22;370;48.810;9.150;2023-08-21T11:50:05;56.20;1.00
774;DHT22;370;48.810;9.150;2023-08-21T11:52:32;53.80;1.00
774;DHT22;370;48.810;9.150;2023-08-21T11:55:07;53.50;1.00
774;DHT22;370;48.810;9.150;2023-08-21T11:57:34;54.60;1.00
774;DHT22;370;48.810;9.150;2023-08-21T12:00:01;55.90;1.00
774;DHT22;370;48.810;9.150;2023-08-21T12:02:30;56.40;1.00
774;DHT22;370;48.810;9.150;2023-08-21T12:05:03;56.20;1.00
774;DHT22;370;48.810;9.150;2023-08-21T12:07:30;57.50;1.00
774;DHT22;370;48.810;9.150;2023-08-21T12:09:57;57.20;1.00
774;DHT22;370;48.810;9.150;2023-08-21T12:12:25;58.00;1.00
774;DHT22;370;48.810;9.150;2023-08-21T12:14:52;59.20;1.00
774;DHT22;370;48.810;9.150;2023-08-21T12:17:19;59.90;1.00
774;DHT22;370;48.810;9.150;2023-08-21T12:19:45;60.40;1.00
774;DHT22;370;48.810;9.150;2023-08-21T12:22:12;61.10;1.00
774;DHT22;370;48.810;9.150;2023-08-21T12:24:39;61.10;1.00
774;DHT22;370;48.810;9.150;2023-08-21T12:27:06;59.00;1.00
774;DHT22;370;48.810;9.150;2023-08-21T12:29:35;56.70;1.00
774;DHT22;370;48.810;9.150;2023-08-21T12:32:02;55.70;1.00
774;DHT22;370;48.810;9.150;2023-08-21T12:34:29;55.00;1.00
774;DHT22;370;48.810;9.150;2023-08-21T12:36:56;55.10;1.00
774;DHT22;370;48.810;9.150;2023-08-21T12:39:23;54.70;1.00
774;DHT22;370;48.810;9.150;2023-08-21T12:41:50;52.10;1.00
774;DHT22;370;48.810;9.150;2023-08-21T12:44:17;49.90;1.00
774;DHT22;370;48.810;9.150;2023-08-21T12:46:45;47.90;1.00
774;DHT22;370;48.810;9.150;2023-08-21T12:49:12;46.50;1.00
774;DHT22;370;48.810;9.150;2023-08-21T12:51:39;44.90;1.00
774;DHT22;370;48.810;9.150;2023-08-21T12:54:06;43.80;1.00
774;DHT22;370;48.810;9.150;2023-08-21T12:56:34;43.00;1.00
774;DHT22;370;48.810;9.150;2023-08-21T12:59:01;42.50;1.00
774;DHT22;370;48.810;9.150;2023-08-21T13:01:29;42.90;1.00
774;DHT22;370;48.810;9.150;2023-08-21T13:03:58;44.90;1.00
774;DHT22;370;48.810;9.150;2023-08-21T13:06:25;46.00;1.00
774;DHT22;370;48.810;9.150;2023-08-21T13:08:52;45.70;1.00
774;DHT22;370;48.810;9.150;2023-08-21T13:11:19;44.80;1.00
774;DHT22;370;48.810;9.150;2023-08-21T13:13:47;43.60;1.00
774;DHT22;370;48.810;9.150;2023-08-21T13:16:14;42.20;1.00
774;DHT22;370;48.810;9.150;2023-08-21T13:18:40;41.10;1.00
774;DHT22;370;48.810;9.150;2023-08-21T13:21:09;40.70;1.00
774;DHT22;370;48.810;9.150;2023-08-21T13:23:36;39.90;1.00
774;DHT22;370;48.810;9.150;2023-08-21T13:26:03;39.30;1.00
774;DHT22;370;48.810;9.150;2023-08-21T13:28:30;38.90;1.00
774;DHT22;370;48.810;9.150;2023-08-21T13:30:57;38.80;1.00
774;DHT22;370;48.810;9.150;2023-08-21T13:33:25;38.30;1.00
774;DHT22;370;48.810;9.150;2023-08-21T13:35:52;38.30;1.00
774;DHT22;370;48.810;9.150;2023-08-21T13:38:20;38.30;1.00
774;DHT22;370;48.810;9.150;2023-08-21T13:40:47;38.70;1.00
774;DHT22;370;48.810;9.150;2023-08-21T13:43:13;39.50;1.00
774;DHT22;370;48.810;9.150;2023-08-21T13:45:40;39.90;1.00
774;DHT22;370;48.810;9.150;2023-08-21T13:48:08;41.90;1.00
774;DHT22;370;48.810;9.150;2023-08-21T13:50:35;44.60;1.00
774;DHT22;370;48.810;9.150;2023-08-21T13:53:01;45.70;1.00
774;DHT22;370;48.810;9.150;2023-08-21T13:55:30;46.30;1.00
774;DHT22;370;48.810;9.150;2023-08-21T13:57:57;46.50;1.00
774;DHT22;370;48.810;9.150;2023-08-21T14:00:24;46.30;1.00
774;DHT22;370;48.810;9.150;2023-08-21T14:02:50;46.50;1.00
774;DHT22;370;48.810;9.150;2023-08-21T14:05:17;45.80;1.00
774;DHT22;370;48.810;9.150;2023-08-21T14:07:44;43.80;1.00
774;DHT22;370;48.810;9.150;2023-08-21T14:10:11;42.10;1.00
774;DHT22;370;48.810;9.150;2023-08-21T14:12:41;41.00;1.00
774;DHT22;370;48.810;9.150;2023-08-21T14:15:09;39.90;1.00
774;DHT22;370;48.810;9.150;2023-08-21T14:17:36;39.20;1.00
774;DHT22;370;48.810;9.150;2023-08-21T14:20:04;38.40;1.00
774;DHT22;370;48.810;9.150;2023-08-21T14:22:32;37.60;1.00
774;DHT22;370;48.810;9.150;2023-08-21T14:24:59;37.60;1.00
774;DHT22;370;48.810;9.150;2023-08-21T14:27:26;37.50;1.00
774;DHT22;370;48.810;9.150;2023-08-21T14:29:54;37.70;1.00
774;DHT22;370;48.810;9.150;2023-08-21T14:32:21;38.00;1.00
774;DHT22;370;48.810;9.150;2023-08-21T14:34:48;38.80;1.00
774;DHT22;370;48.810;9.150;2023-08-21T14:37:14;40.30;1.00
774;DHT22;370;48.810;9.150;2023-08-21T14:39:41;40.70;1.00
774;DHT22;370;48.810;9.150;2023-08-21T14:42:09;41.10;1.00
774;DHT22;370;48.810;9.150;2023-08-21T14:44:36;41.20;1.00
774;DHT22;370;48.810;9.150;2023-08-21T14:47:05;41.70;1.00
774;DHT22;370;48.810;9.150;2023-08-21T14:49:32;41.60;1.00
774;DHT22;370;48.810;9.150;2023-08-21T14:51:59;41.60;1.00
774;DHT22;370;48.810;9.150;2023-08-21T14:54:25;41.90;1.00
774;DHT22;370;48.810;9.150;2023-08-21T14:56:52;42.00;1.00
774;DHT22;370;48.810;9.150;2023-08-21T14:59:19;41.30;1.00
774;DHT22;370;48.810;9.150;2023-08-21T15:01:45;40.70;1.00
774;DHT22;370;48.810;9.150;2023-08-21T15:04:13;40.80;1.00
774;DHT22;370;48.810;9.150;2023-08-21T15:06:40;40.70;1.00
774;DHT22;370;48.810;9.150;2023-08-21T15:09:08;40.90;1.00
774;DHT22;370;48.810;9.150;2023-08-21T15:11:35;41.00;1.00
774;DHT22;370;48.810;9.150;2023-08-21T15:14:02;41.30;1.00
774;DHT22;370;48.810;9.150;2023-08-21T15:16:29;41.60;1.00
774;DHT22;370;48.810;9.150;2023-08-21T15:18:56;41.60;1.00
774;DHT22;370;48.810;9.150;2023-08-21T15:21:25;41.80;1.00
774;DHT22;370;48.810;9.150;2023-08-21T15:23:52;42.60;1.00
774;DHT22;370;48.810;9.150;2023-08-21T15:26:19;43.40;1.00
774;DHT22;370;48.810;9.150;2023-08-21T15:28:46;43.20;1.00
774;DHT22;370;48.810;9.150;2023-08-21T15:31:13;43.90;1.00
774;DHT22;370;48.810;9.150;2023-08-21T15:33:41;44.40;1.00
774;DHT22;370;48.810;9.150;2023-08-21T15:36:08;44.00;1.00
774;DHT22;370;48.810;9.150;2023-08-21T15:38:36;42.80;1.00
774;DHT22;370;48.810;9.150;2023-08-21T15:41:03;42.60;1.00
774;DHT22;370;48.810;9.150;2023-08-21T15:43:29;41.30;1.00
774;DHT22;370;48.810;9.150;2023-08-21T15:45:56;40.50;1.00
774;DHT22;370;48.810;9.150;2023-08-21T15:48:23;39.90;1.00
774;DHT22;370;48.810;9.150;2023-08-21T15:50:50;39.50;1.00
774;DHT22;370;48.810;9.150;2023-08-21T15:53:17;40.00;1.00
774;DHT22;370;48.810;9.150;2023-08-21T15:55:45;40.10;1.00
774;DHT22;370;48.810;9.150;2023-08-21T15:58:12;40.20;1.00
774;DHT22;370;48.810;9.150;2023-08-21T16:00:39;40.40;1.00
774;DHT22;370;48.810;9.150;2023-08-21T16:03:06;40.80;1.00
774;DHT22;370;48.810;9.150;2023-08-21T16:05:33;41.10;1.00
774;DHT22;370;48.810;9.150;2023-08-21T16:07:59;40.70;1.00
774;DHT22;370;48.810;9.150;2023-08-21T16:10:26;40.70;1.00
774;DHT22;370;48.810;9.150;2023-08-21T16:12:54;39.90;1.00
774;DHT22;370;48.810;9.150;2023-08-21T16:15:21;39.40;1.00
774;DHT22;370;48.810;9.150;2023-08-21T16:17:48;39.20;1.00
774;DHT22;370;48.810;9.150;2023-08-21T16:20:16;39.00;1.00
774;DHT22;370;48.810;9.150;2023-08-21T16:22:42;39.00;1.00
774;DHT22;370;48.810;9.150;2023-08-21T16:25:09;38.90;1.00
774;DHT22;370;48.810;9.150;2023-08-21T16:27:38;38.30;1.00
774;DHT22;370;48.810;9.150;2023-08-21T16:30:07;37.70;1.00
774;DHT22;370;48.810;9.150;2023-08-21T16:32:34;37.10;1.00
774;DHT22;370;48.810;9.150;2023-08-21T16:35:01;36.40;1.00
774;DHT22;370;48.810;9.150;2023-08-21T16:37:31;35.90;1.00
774;DHT22;370;48.810;9.150;2023-08-21T16:39:58;35.70;1.00
774;DHT22;370;48.810;9.150;2023-08-21T16:42:25;35.40;1.00
774;DHT22;370;48.810;9.150;2023-08-21T16:44:51;35.30;1.00
774;DHT22;370;48.810;9.150;2023-08-21T16:47:20;35.10;1.00
774;DHT22;370;48.810;9.150;2023-08-21T16:49:46;34.90;1.00
774;DHT22;370;48.810;9.150;2023-08-21T16:52:13;34.60;1.00
774;DHT22;370;48.810;9.150;2023-08-21T16:54:40;34.30;1.00